Time;durP1;ratioP1;P1;durP2;ratioP2;P2;SDS_P1;SDS_P2;PMS_P1;PMS_P2;Temp;Humidity;BMP_temperature;BMP_pressure;BME280_temperature;BME280_humidity;BME280_pressure;Samples;Min_cycle;Max_cycle;Signal;HPM_P1;HPM_P2
2022/11/27 00:00:07;;;;;;;3.72;1.05;;;;;;;7.29;100.00;100537.94;10334943;28;20049;-73
2022/11/27 00:05:08;;;;;;;4.70;1.20;;;;;;;6.77;100.00;100450.28;10334263;28;20153;-73
2022/11/27 00:10:09;;;;;;;4.32;1.30;;;;;;;7.01;100.00;100491.25;10334029;28;20049;-73
2022/11/27 00:15:10;;;;;;;2.90;0.90;;;;;;;6.65;100.00;100432.94;10333189;28;20522;-73
2022/11/27 00:20:12;;;;;;;1.55;0.70;;;;;;;7.26;100.00;100540.03;10334481;28;20046;-73
2022/11/27 00:25:13;;;;;;;1.70;0.60;;;;;;;7.19;100.00;100542.41;10332924;28;20475;-73
2022/11/27 00:30:14;;;;;;;1.70;0.82;;;;;;;7.23;100.00;100548.22;10333882;28;20133;-73
2022/11/27 00:35:15;;;;;;;4.53;1.00;;;;;;;6.53;100.00;100434.06;10333160;28;20041;-73
2022/11/27 00:40:15;;;;;;;2.55;1.30;;;;;;;6.74;100.00;100471.69;10333695;28;20049;-74
2022/11/27 00:45:16;;;;;;;4.03;1.30;;;;;;;6.75;100.00;100473.34;10333725;28;20070;-73
2022/11/27 00:50:17;;;;;;;3.67;1.50;;;;;;;7.09;100.00;100531.84;10332851;28;20077;-73
2022/11/27 00:55:18;;;;;;;3.40;1.10;;;;;;;6.65;100.00;100469.91;10331645;28;20061;-73
2022/11/27 01:00:19;;;;;;;3.08;1.20;;;;;;;7.12;100.00;100551.88;10332398;28;20053;-73
2022/11/27 01:05:20;;;;;;;2.75;1.17;;;;;;;6.86;100.00;100528.66;10332348;28;20129;-73
2022/11/27 01:10:20;;;;;;;4.80;1.10;;;;;;;7.10;100.00;100559.09;10346570;28;20140;-73
2022/11/27 01:15:21;;;;;;;2.75;1.20;;;;;;;6.97;100.00;100548.81;10332069;28;20045;-73
2022/11/27 01:20:22;;;;;;;2.40;1.00;;;;;;;6.98;100.00;100555.78;10331145;28;20049;-73
2022/11/27 01:25:23;;;;;;;1.95;1.00;;;;;;;6.94;100.00;100567.59;10332743;28;20038;-73
2022/11/27 01:30:23;;;;;;;1.92;0.80;;;;;;;6.46;100.00;100477.78;10331520;28;20042;-73
2022/11/27 01:35:24;;;;;;;2.33;0.85;;;;;;;6.40;100.00;100479.19;10330313;28;20034;-73
2022/11/27 01:40:25;;;;;;;1.75;1.00;;;;;;;6.55;100.00;100504.22;10346806;28;20490;-73
2022/11/27 01:45:26;;;;;;;1.83;1.05;;;;;;;6.34;100.00;100469.16;10331512;28;20062;-74
2022/11/27 01:50:36;;;;;;;1.83;0.98;;;;;;;7.05;100.00;100582.44;10331694;28;20062;-73
2022/11/27 01:55:43;;;;;;;2.78;1.13;;;;;;;7.06;100.00;100592.06;10330519;28;20042;-73
2022/11/27 02:00:44;;;;;;;3.75;1.38;;;;;;;6.53;100.00;100506.16;10330897;28;20487;-73
2022/11/27 02:05:45;;;;;;;3.47;1.23;;;;;;;7.02;100.00;100595.94;10345315;28;20038;-73
2022/11/27 02:10:53;;;;;;;2.78;1.13;;;;;;;7.03;100.00;100608.16;10330717;28;20049;-74
2022/11/27 02:15:54;;;;;;;2.47;1.20;;;;;;;6.94;100.00;100616.91;10331104;28;20070;-73
2022/11/27 02:21:25;;;;;;;3.97;1.20;;;;;;;6.96;100.00;100629.00;10345292;28;20459;-73
2022/11/27 02:26:53;;;;;;;2.33;1.00;;;;;;;6.65;100.00;100585.22;10333702;28;20042;-73
2022/11/27 02:32:14;;;;;;;1.98;0.93;;;;;;;6.67;100.00;100573.56;10337812;28;20576;-74
2022/11/27 02:37:43;;;;;;;2.20;1.20;;;;;;;7.06;100.00;100629.88;10304808;28;20042;-74
2022/11/27 02:42:55;;;;;;;2.72;1.35;;;;;;;6.37;100.00;100541.00;10311237;28;20050;-73
2022/11/27 02:47:57;;;;;;;3.08;1.00;;;;;;;6.93;100.00;100641.66;10336707;28;20149;-73
2022/11/27 02:53:03;;;;;;;4.80;1.17;;;;;;;6.89;100.00;100627.91;10336521;28;20076;-73
2022/11/27 02:58:09;;;;;;;6.63;1.42;;;;;;;6.62;100.00;100591.59;10351985;28;20046;-73
2022/11/27 03:03:13;;;;;;;4.20;1.60;;;;;;;7.05;100.00;100666.97;10326271;28;20133;-73
2022/11/27 03:08:27;;;;;;;3.15;1.50;;;;;;;6.48;100.00;100574.34;10296177;28;20046;-73
2022/11/27 03:13:30;;;;;;;2.90;1.90;;;;;;;6.91;100.00;100667.38;10295513;28;20117;-73
2022/11/27 03:18:40;;;;;;;3.07;1.60;;;;;;;7.01;100.00;100692.00;10295883;28;20038;-73
2022/11/27 03:23:41;;;;;;;6.82;1.80;;;;;;;6.97;100.00;100680.03;10295149;28;20065;-73
2022/11/27 03:28:44;;;;;;;7.80;2.03;;;;;;;6.87;100.00;100672.09;10296236;28;20043;-73
2022/11/27 03:33:46;;;;;;;11.98;2.08;;;;;;;6.92;100.00;100696.31;10295860;28;20042;-72
2022/11/27 03:38:48;;;;;;;12.40;1.50;;;;;;;6.90;100.00;100690.31;10293639;28;20474;-73
2022/11/27 03:43:55;;;;;;;3.17;1.48;;;;;;;6.31;100.00;100606.63;10294423;28;20046;-73
2022/11/27 03:49:18;;;;;;;4.93;1.58;;;;;;;6.77;100.00;100690.56;10293980;28;20474;-73
2022/11/27 03:54:22;;;;;;;2.72;1.40;;;;;;;6.76;100.00;100704.75;10293950;28;20042;-73
2022/11/27 03:59:30;;;;;;;5.53;1.77;;;;;;;6.72;100.00;100716.53;10293879;28;20122;-73
2022/11/27 04:04:31;;;;;;;9.07;2.30;;;;;;;6.61;100.00;100719.25;10292858;28;20042;-73
2022/11/27 04:09:31;;;;;;;9.15;2.20;;;;;;;6.46;100.00;100713.53;10294536;28;20046;-73
2022/11/27 04:14:32;;;;;;;4.55;2.10;;;;;;;6.50;100.00;100735.22;10293139;28;20445;-73
2022/11/27 04:19:33;;;;;;;5.72;2.00;;;;;;;6.37;100.00;100725.72;10292939;28;20038;-73
2022/11/27 04:24:34;;;;;;;4.45;2.03;;;;;;;6.47;100.00;100728.38;10293480;28;20100;-73
2022/11/27 04:29:35;;;;;;;5.45;2.22;;;;;;;6.61;100.00;100743.00;10310038;28;20046;-72
2022/11/27 04:34:36;;;;;;;4.47;2.33;;;;;;;6.37;100.00;100709.88;10300274;28;20039;-73
2022/11/27 04:39:37;;;;;;;4.05;2.05;;;;;;;6.56;100.00;100761.06;10292906;28;20046;-73
2022/11/27 04:44:37;;;;;;;4.20;2.50;;;;;;;6.52;100.00;100759.66;10266645;28;20046;-73
2022/11/27 04:49:38;;;;;;;5.18;2.20;;;;;;;5.93;100.00;100674.94;10294628;28;20240;-73
2022/11/27 04:54:39;;;;;;;7.97;2.33;;;;;;;6.46;100.00;100770.72;10291729;28;20066;-72
2022/11/27 04:59:40;;;;;;;7.45;2.05;;;;;;;6.02;100.00;100704.97;10291473;28;20138;-73
2022/11/27 05:04:41;;;;;;;6.93;2.30;;;;;;;6.16;100.00;100725.75;10292531;28;20129;-73
2022/11/27 05:09:42;;;;;;;3.42;1.73;;;;;;;5.96;100.00;100715.19;10291653;28;20411;-73
2022/11/27 05:14:42;;;;;;;4.22;1.90;;;;;;;6.42;100.00;100811.56;10293025;28;20045;-73
2022/11/27 05:19:43;;;;;;;53.20;40.47;;;;;;;6.04;100.00;100776.88;10291555;28;20066;-73
2022/11/27 05:24:45;;;;;;;40.10;24.83;;;;;;;6.23;100.00;100805.19;10290954;28;20042;-72
2022/11/27 05:29:46;;;;;;;10.27;5.53;;;;;;;6.22;100.00;100819.31;10291459;28;20094;-73
2022/11/27 05:34:48;;;;;;;5.07;3.03;;;;;;;6.04;100.00;100807.66;10291669;28;20039;-73
2022/11/27 05:39:49;;;;;;;30.45;3.88;;;;;;;5.71;100.00;100754.09;10291248;28;20491;-73
2022/11/27 05:44:50;;;;;;;5.63;1.83;;;;;;;6.06;100.00;100811.84;10290144;28;20039;-73
2022/11/27 05:49:50;;;;;;;13.25;2.78;;;;;;;6.20;100.00;100839.75;10291484;28;20126;-73
2022/11/27 05:54:53;;;;;;;16.30;1.83;;;;;;;6.30;100.00;100847.72;10288372;28;20050;-71
2022/11/27 05:59:54;;;;;;;6.70;1.77;;;;;;;6.16;100.00;100838.31;10286181;28;20384;-74
2022/11/27 06:04:55;;;;;;;3.47;1.50;;;;;;;6.37;100.00;100868.19;10289990;28;20062;-71
2022/11/27 06:09:55;;;;;;;2.20;1.20;;;;;;;6.29;100.00;100881.19;10300076;28;20046;-72
2022/11/27 06:14:56;;;;;;;3.58;1.13;;;;;;;5.08;100.00;100706.53;10313109;28;20042;-73
2022/11/27 06:19:57;;;;;;;3.05;1.30;;;;;;;6.02;100.00;100868.47;10338449;28;20050;-73
2022/11/27 06:24:58;;;;;;;7.95;1.23;;;;;;;5.74;100.00;100840.84;10308587;28;20043;-73
2022/11/27 06:29:59;;;;;;;4.28;1.17;;;;;;;6.14;100.00;100906.19;10296688;28;20046;-73
2022/11/27 06:35:00;;;;;;;4.60;1.10;;;;;;;6.02;100.00;100865.00;10293893;28;20422;-72
2022/11/27 06:40:01;;;;;;;5.50;1.70;;;;;;;5.92;100.00;100854.31;10293422;28;20038;-72
2022/11/27 06:45:02;;;;;;;2.88;1.50;;;;;;;5.86;100.00;100847.78;10292538;28;20346;-74
2022/11/27 06:50:04;;;;;;;2.70;1.30;;;;;;;6.03;100.00;100898.31;10291349;28;20065;-73
2022/11/27 06:55:05;;;;;;;2.50;1.15;;;;;;;5.28;100.00;100788.38;10291826;28;20043;-73
2022/11/27 07:00:06;;;;;;;8.68;1.48;;;;;;;6.14;100.00;100935.22;10290066;28;20039;-73
2022/11/27 07:05:07;;;;;;;3.83;1.20;;;;;;;5.55;100.00;100865.22;10291653;28;20174;-73
2022/11/27 07:10:08;;;;;;;2.58;1.00;;;;;;;5.67;100.00;100873.94;10290961;28;20503;-72
2022/11/27 07:15:09;;;;;;;2.83;1.00;;;;;;;5.65;100.00;100857.41;10292908;28;20041;-73
2022/11/27 07:20:10;;;;;;;2.63;1.52;;;;;;;6.02;100.00;100904.56;10295571;28;20415;-73
2022/11/27 07:25:11;;;;;;;4.10;1.83;;;;;;;6.37;100.00;100942.09;10291388;28;20046;-74
2022/11/27 07:30:12;;;;;;;6.78;1.70;;;;;;;6.36;100.00;100948.31;10290747;28;20415;-74
2022/11/27 07:35:13;;;;;;;9.20;2.03;;;;;;;6.28;100.00;100918.25;10290585;28;20038;-74
2022/11/27 07:40:14;;;;;;;3.00;1.35;;;;;;;6.29;100.00;100941.03;10290171;28;20034;-74
2022/11/27 07:45:15;;;;;;;2.75;1.00;;;;;;;6.35;100.00;100954.56;10290412;28;20039;-73
2022/11/27 07:50:16;;;;;;;9.50;1.30;;;;;;;6.43;100.00;100951.28;10287706;28;20051;-74
2022/11/27 07:55:16;;;;;;;3.92;1.38;;;;;;;6.32;100.00;100917.03;10290751;28;20506;-74
2022/11/27 08:00:18;;;;;;;5.03;1.20;;;;;;;6.54;100.00;100956.53;10293948;28;20054;-72
2022/11/27 08:05:18;;;;;;;3.38;1.40;;;;;;;6.57;100.00;100945.72;10294503;28;20042;-72
2022/11/27 08:10:19;;;;;;;2.67;1.00;;;;;;;6.61;100.00;100957.69;10293440;28;20494;-73
2022/11/27 08:15:20;;;;;;;4.57;1.00;;;;;;;5.62;100.00;100781.22;10293291;28;20495;-74
2022/11/27 08:20:22;;;;;;;5.05;1.23;;;;;;;6.61;100.00;100951.56;10292857;28;20434;-73
2022/11/27 08:25:22;;;;;;;7.97;1.63;;;;;;;6.42;100.00;100928.50;10294824;28;20061;-74
2022/11/27 08:30:23;;;;;;;6.50;2.88;;;;;;;6.22;100.00;100900.28;10312464;28;20042;-74
2022/11/27 08:35:24;;;;;;;4.68;1.42;;;;;;;6.03;100.00;100862.22;10313846;28;20498;-72
2022/11/27 08:40:25;;;;;;;5.13;1.45;;;;;;;6.51;100.00;100932.19;10333026;28;20042;-72
2022/11/27 08:45:26;;;;;;;5.78;2.38;;;;;;;6.28;100.00;100902.41;10331900;28;20049;-72
2022/11/27 08:50:27;;;;;;;7.90;1.50;;;;;;;6.38;100.00;100930.56;10324562;28;20137;-73
2022/11/27 08:55:28;;;;;;;3.60;1.10;;;;;;;6.38;100.00;100914.72;10300430;28;20050;-73
2022/11/27 09:00:29;;;;;;;6.65;1.63;;;;;;;6.53;100.00;100936.38;10307494;28;20042;-73
2022/11/27 09:05:31;;;;;;;6.00;2.55;;;;;;;6.52;100.00;100955.81;10331374;28;20065;-73
2022/11/27 09:10:32;;;;;;;10.02;4.13;;;;;;;6.46;100.00;100944.91;10332392;28;20137;-73
2022/11/27 09:15:33;;;;;;;8.77;2.15;;;;;;;6.56;100.00;100972.25;10347514;28;20125;-73
2022/11/27 09:20:34;;;;;;;12.07;4.70;;;;;;;6.33;100.00;100926.63;10331703;28;20041;-74
2022/11/27 09:25:38;;;;;;;3.78;1.38;;;;;;;6.31;100.00;100939.09;10305888;28;20051;-74
2022/11/27 09:30:38;;;;;;;15.60;5.10;;;;;;;6.34;100.00;100941.47;10299502;28;20064;-74
2022/11/27 09:35:39;;;;;;;13.93;5.00;;;;;;;6.34;100.00;100923.00;10333679;28;20053;-75
2022/11/27 09:40:50;;;;;;;4.47;1.67;;;;;;;6.30;100.00;100932.16;10339387;28;20042;-72
2022/11/27 09:45:56;;;;;;;4.57;1.77;;;;;;;5.86;100.00;100870.63;10336955;28;20097;-72
2022/11/27 09:51:00;;;;;;;10.18;1.50;;;;;;;6.18;100.00;100926.06;10297817;28;20050;-73
2022/11/27 09:56:04;;;;;;;3.25;1.60;;;;;;;6.42;100.00;100968.09;10298743;28;20047;-73
2022/11/27 10:01:13;;;;;;;4.45;1.40;;;;;;;6.53;100.00;100972.50;10310108;28;20093;-73
2022/11/27 10:06:30;;;;;;;8.98;1.35;;;;;;;6.48;100.00;100945.63;10308651;28;20432;-73
2022/11/27 10:11:40;;;;;;;6.03;2.65;;;;;;;6.31;100.00;100947.88;10332093;28;20478;-73
2022/11/27 10:16:57;;;;;;;39.42;18.60;;;;;;;6.27;100.00;100977.25;10297098;28;20466;-74
2022/11/27 10:22:09;;;;;;;24.60;9.48;;;;;;;6.25;100.00;100963.34;10297587;28;20042;-74
2022/11/27 10:27:21;;;;;;;5.18;2.70;;;;;;;6.36;100.00;100987.91;10297351;28;20136;-73
2022/11/27 10:32:29;;;;;;;6.28;2.75;;;;;;;6.44;100.00;100978.53;10303034;28;20051;-74
2022/11/27 10:37:40;;;;;;;7.35;2.13;;;;;;;6.38;100.00;100985.97;10338022;28;20395;-74
2022/11/27 10:42:50;;;;;;;3.17;1.50;;;;;;;6.21;100.00;100975.94;10337649;28;20042;-73
2022/11/27 10:47:51;;;;;;;4.82;1.83;;;;;;;5.90;100.00;100954.66;10335166;28;20545;-73
2022/11/27 10:52:59;;;;;;;6.13;1.65;;;;;;;6.15;100.00;100989.63;10336795;28;20052;-74
2022/11/27 10:58:13;;;;;;;3.63;1.90;;;;;;;6.19;100.00;100983.13;10337031;28;20482;-73
2022/11/27 11:03:17;;;;;;;4.33;2.00;;;;;;;6.10;100.00;100954.88;10336855;28;20046;-74
2022/11/27 11:08:19;;;;;;;2.88;1.60;;;;;;;6.38;100.00;101007.09;10336044;28;20054;-74
2022/11/27 11:13:27;;;;;;;2.83;1.80;;;;;;;6.47;100.00;101005.50;10335795;28;20034;-73
2022/11/27 11:18:33;;;;;;;4.43;1.48;;;;;;;6.27;100.00;100967.53;10336043;28;20558;-74
2022/11/27 11:23:38;;;;;;;3.35;1.80;;;;;;;6.40;100.00;100994.63;10307808;28;20134;-74
2022/11/27 11:28:49;;;;;;;3.13;1.90;;;;;;;6.26;100.00;100962.41;10328908;28;20138;-74
2022/11/27 11:34:20;;;;;;;2.70;1.58;;;;;;;6.59;100.00;101020.34;10296053;28;20535;-73
2022/11/27 11:39:26;;;;;;;5.68;1.67;;;;;;;6.48;100.00;101001.91;10292096;28;20055;-73
2022/11/27 11:44:35;;;;;;;2.97;1.30;;;;;;;6.62;100.00;101029.81;10294458;28;20038;-73
2022/11/27 11:49:36;;;;;;;4.82;1.40;;;;;;;6.20;100.00;100990.13;10302762;28;20063;-73
2022/11/27 11:54:46;;;;;;;10.40;1.83;;;;;;;6.53;100.00;101043.78;10316825;28;20160;-73
2022/11/27 12:00:00;;;;;;;5.03;1.30;;;;;;;6.02;100.00;100946.75;10304514;28;20093;-73
2022/11/27 12:05:21;;;;;;;2.28;1.20;;;;;;;6.56;100.00;101040.88;10311637;28;20038;-73
2022/11/27 12:10:47;;;;;;;4.68;1.58;;;;;;;6.33;100.00;100997.88;10309289;28;20053;-73
2022/11/27 12:16:27;;;;;;;4.20;1.63;;;;;;;6.30;100.00;101027.97;10334551;28;20046;-74
2022/11/27 12:22:11;;;;;;;3.85;1.73;;;;;;;5.94;100.00;100976.38;10326544;28;20086;-74
2022/11/27 12:27:36;;;;;;;25.73;16.13;;;;;;;6.29;100.00;101060.63;10311052;28;20633;-73
2022/11/27 12:32:55;;;;;;;9.70;6.15;;;;;;;6.23;100.00;101057.63;10293344;28;20039;-74
2022/11/27 12:38:04;;;;;;;4.75;3.50;;;;;;;5.73;100.00;100986.78;10311505;28;20090;-72
2022/11/27 12:43:29;;;;;;;12.73;6.70;;;;;;;5.66;100.00;100978.53;10316724;28;20050;-73
2022/11/27 12:48:38;;;;;;;7.18;2.60;;;;;;;6.00;100.00;101038.34;10332991;28;20057;-74
2022/11/27 12:53:49;;;;;;;6.47;3.58;;;;;;;6.24;100.00;101093.59;10252961;28;20047;-74
2022/11/27 12:59:01;;;;;;;9.32;2.60;;;;;;;6.21;100.00;101096.47;10252694;28;20376;-75
2022/11/27 13:04:26;;;;;;;3.92;2.22;;;;;;;6.24;100.00;101101.50;10277704;28;20042;-74
2022/11/27 13:09:36;;;;;;;6.60;2.00;;;;;;;6.24;100.00;101094.44;10318007;28;20050;-74
2022/11/27 13:14:40;;;;;;;3.38;1.65;;;;;;;5.62;100.00;100997.34;10322887;28;20129;-74
2022/11/27 13:19:46;;;;;;;5.25;2.55;;;;;;;6.24;100.00;101120.81;10297276;28;20046;-74
2022/11/27 13:24:46;;;;;;;5.22;2.50;;;;;;;5.58;100.00;101025.72;10302323;28;20074;-73
2022/11/27 13:29:56;;;;;;;5.68;3.45;;;;;;;5.98;100.00;101120.22;10331492;28;20066;-72
2022/11/27 13:35:01;;;;;;;7.32;4.00;;;;;;;6.03;100.00;101122.50;10322189;28;20479;-73
2022/11/27 13:40:05;;;;;;;9.05;3.30;;;;;;;5.90;100.00;101098.84;10292012;28;20054;-73
2022/11/27 13:45:11;;;;;;;7.60;2.97;;;;;;;5.47;100.00;101037.13;10297259;28;20406;-73
2022/11/27 13:50:15;;;;;;;7.72;3.75;;;;;;;6.07;100.00;101145.03;10326345;28;20707;-73
2022/11/27 13:55:26;;;;;;;6.53;2.75;;;;;;;6.10;100.00;101142.16;10313071;28;20049;-73
2022/11/27 14:00:34;;;;;;;7.20;3.65;;;;;;;6.03;100.00;101143.59;10291066;28;20593;-73
2022/11/27 14:05:43;;;;;;;6.03;3.47;;;;;;;5.51;100.00;101063.25;10308877;28;20038;-72
2022/11/27 14:11:05;;;;;;;5.60;3.28;;;;;;;5.96;100.00;101147.69;10330365;28;20038;-72
2022/11/27 14:16:33;;;;;;;10.32;6.38;;;;;;;6.00;100.00;101154.41;10331028;28;20048;-73
2022/11/27 14:21:40;;;;;;;6.35;3.80;;;;;;;6.06;100.00;101153.91;10333297;28;20046;-73
2022/11/27 14:26:41;;;;;;;9.25;4.70;;;;;;;5.79;100.00;101118.13;10318548;28;20054;-73
2022/11/27 14:31:42;;;;;;;12.48;7.45;;;;;;;6.02;100.00;101160.41;10297300;28;20046;-74
2022/11/27 14:36:43;;;;;;;10.13;5.75;;;;;;;5.80;100.00;101127.72;10297116;28;20392;-73
2022/11/27 14:41:54;;;;;;;18.13;9.15;;;;;;;5.97;100.00;101170.44;10298031;28;20038;-73
2022/11/27 14:46:59;;;;;;;10.50;3.83;;;;;;;5.88;100.00;101175.44;10296628;28;20417;-74
2022/11/27 14:52:04;;;;;;;6.13;3.42;;;;;;;5.84;100.00;101178.44;10296658;28;20689;-73
2022/11/27 14:57:09;;;;;;;6.93;3.33;;;;;;;5.68;100.00;101155.00;10296917;28;20041;-73
2022/11/27 15:02:10;;;;;;;5.65;3.10;;;;;;;5.71;100.00;101186.41;10296541;28;20042;-73
2022/11/27 15:07:23;;;;;;;5.60;3.30;;;;;;;5.29;100.00;101141.25;10295877;28;20045;-73
2022/11/27 15:12:30;;;;;;;7.37;3.27;;;;;;;5.40;100.00;101183.44;10295561;28;20053;-75
2022/11/27 15:17:38;;;;;;;8.18;3.72;;;;;;;5.33;100.00;101166.44;10292999;28;20305;-72
2022/11/27 15:22:47;;;;;;;9.45;4.20;;;;;;;4.92;100.00;101108.91;10256018;28;20051;-79
2022/11/27 15:27:49;;;;;;;5.90;3.38;;;;;;;4.94;100.00;101102.56;10254486;28;20051;-75
2022/11/27 15:32:52;;;;;;;8.38;3.42;;;;;;;5.43;100.00;101188.50;10316301;28;20088;-78
2022/11/27 15:37:56;;;;;;;4.05;2.63;;;;;;;5.21;100.00;101162.06;10334752;28;20050;-72
2022/11/27 15:42:56;;;;;;;7.63;3.17;;;;;;;5.21;100.00;101177.88;10298880;28;20043;-74
2022/11/27 15:47:59;;;;;;;8.00;3.75;;;;;;;5.22;100.00;101185.66;10305383;28;20518;-72
2022/11/27 15:53:00;;;;;;;5.97;4.03;;;;;;;5.10;100.00;101177.81;10294893;28;20046;-72
2022/11/27 15:58:01;;;;;;;4.45;2.75;;;;;;;4.91;100.00;101139.66;10292727;28;20046;-71
2022/11/27 16:03:02;;;;;;;5.50;2.50;;;;;;;5.13;100.00;101182.84;10293610;28;20053;-68
2022/11/27 16:08:04;;;;;;;5.50;3.50;;;;;;;4.74;100.00;101114.56;10292656;28;20133;-69
2022/11/27 16:13:04;;;;;;;6.55;3.50;;;;;;;5.00;100.00;101160.06;10294335;28;20511;-69
2022/11/27 16:18:06;;;;;;;8.32;4.80;;;;;;;5.12;100.00;101205.72;10317160;28;20137;-70
2022/11/27 16:23:06;;;;;;;7.63;3.88;;;;;;;5.03;100.00;101207.22;10327898;28;20049;-70
2022/11/27 16:28:07;;;;;;;6.63;3.90;;;;;;;5.04;100.00;101232.59;10285158;28;20062;-69
2022/11/27 16:33:08;;;;;;;7.20;4.10;;;;;;;5.13;100.00;101238.16;10293301;28;20403;-71
2022/11/27 16:38:09;;;;;;;8.10;4.05;;;;;;;4.88;100.00;101208.34;10303436;28;20047;-71
2022/11/27 16:43:10;;;;;;;6.38;3.63;;;;;;;4.98;100.00;101211.97;10317433;28;20070;-70
2022/11/27 16:48:11;;;;;;;6.13;3.47;;;;;;;5.01;100.00;101251.25;10327391;28;20454;-71
2022/11/27 16:53:11;;;;;;;7.03;4.07;;;;;;;4.96;100.00;101252.53;10307189;28;20383;-70
2022/11/27 16:58:12;;;;;;;8.85;3.42;;;;;;;4.04;100.00;101104.66;10302399;28;20053;-71
2022/11/27 17:03:13;;;;;;;6.95;3.30;;;;;;;4.88;100.00;101255.72;10332437;28;20541;-69
2022/11/27 17:08:14;;;;;;;6.95;3.50;;;;;;;4.86;100.00;101247.09;10309490;28;20121;-69
2022/11/27 17:13:14;;;;;;;9.65;3.72;;;;;;;4.64;100.00;101210.94;10272698;28;20035;-69
2022/11/27 17:18:15;;;;;;;7.13;3.47;;;;;;;4.86;100.00;101256.78;10306706;28;20494;-71
2022/11/27 17:23:16;;;;;;;5.60;3.40;;;;;;;4.88;100.00;101271.53;10303081;28;20043;-71
2022/11/27 17:28:17;;;;;;;6.00;2.88;;;;;;;4.51;100.00;101194.31;10324618;28;20042;-70
2022/11/27 17:33:18;;;;;;;9.43;3.85;;;;;;;4.76;100.00;101232.91;10321083;28;20047;-71
2022/11/27 17:38:19;;;;;;;5.22;3.20;;;;;;;4.73;100.00;101273.44;10290960;28;20130;-71
2022/11/27 17:43:20;;;;;;;10.35;3.83;;;;;;;4.70;100.00;101276.28;10295647;28;20129;-71
2022/11/27 17:48:22;;;;;;;11.15;4.97;;;;;;;4.71;100.00;101282.41;10303826;28;20154;-70
2022/11/27 17:53:23;;;;;;;9.50;4.80;;;;;;;3.96;100.00;101171.84;10347108;28;20050;-70
2022/11/27 17:58:24;;;;;;;7.60;4.40;;;;;;;4.60;100.00;101285.75;10306515;28;20579;-70
2022/11/27 18:03:27;;;;;;;8.05;4.57;;;;;;;4.15;100.00;101209.06;10298248;28;20121;-70
2022/11/27 18:08:28;;;;;;;10.82;4.10;;;;;;;4.65;100.00;101298.63;10298209;28;20120;-71
2022/11/27 18:13:31;;;;;;;8.63;4.28;;;;;;;4.76;100.00;101296.91;10322631;28;20125;-71
2022/11/27 18:18:32;;;;;;;9.85;5.07;;;;;;;4.55;100.00;101283.47;10338584;28;20069;-71
2022/11/27 18:23:33;;;;;;;14.10;6.47;;;;;;;4.61;100.00;101294.50;10337147;28;20042;-71
2022/11/27 18:28:34;;;;;;;11.13;4.63;;;;;;;4.51;100.00;101262.72;10337754;28;20135;-71
2022/11/27 18:33:36;;;;;;;12.48;5.13;;;;;;;4.67;100.00;101294.09;10338863;28;20490;-71
2022/11/27 18:38:38;;;;;;;10.40;5.18;;;;;;;4.61;100.00;101291.84;10335865;28;20549;-71
2022/11/27 18:43:40;;;;;;;15.15;5.40;;;;;;;4.47;100.00;101277.88;10337094;28;20042;-71
2022/11/27 18:48:42;;;;;;;11.23;5.68;;;;;;;4.64;100.00;101305.66;10337891;28;20058;-71
2022/11/27 18:53:44;;;;;;;18.42;6.45;;;;;;;4.65;100.00;101307.34;10337633;28;20601;-71
2022/11/27 18:58:45;;;;;;;8.60;5.20;;;;;;;4.62;100.00;101298.81;10336200;28;20422;-71
2022/11/27 19:03:46;;;;;;;11.48;5.45;;;;;;;4.56;100.00;101289.56;10336427;28;20485;-71
2022/11/27 19:08:48;;;;;;;13.88;5.60;;;;;;;4.42;100.00;101295.75;10333198;28;20050;-69
2022/11/27 19:13:50;;;;;;;15.50;10.18;;;;;;;4.06;100.00;101222.84;10285665;28;20050;-72
2022/11/27 19:18:52;;;;;;;12.88;5.85;;;;;;;4.57;100.00;101309.66;10256786;29;20039;-71
2022/11/27 19:23:53;;;;;;;11.02;5.65;;;;;;;4.64;100.00;101320.63;10255441;28;20454;-69
2022/11/27 19:28:57;;;;;;;12.55;5.90;;;;;;;4.53;100.00;101309.03;10284187;28;20049;-70
2022/11/27 19:34:01;;;;;;;11.98;7.13;;;;;;;4.61;100.00;101331.34;10295156;28;20043;-70
2022/11/27 19:39:07;;;;;;;21.17;15.33;;;;;;;4.79;100.00;101351.16;10321853;28;20050;-72
2022/11/27 19:44:10;;;;;;;13.52;9.38;;;;;;;4.80;100.00;101339.66;10306367;28;20047;-70
2022/11/27 19:49:15;;;;;;;8.63;4.30;;;;;;;4.25;100.00;101254.00;10301306;28;20589;-70
2022/11/27 19:54:18;;;;;;;10.93;4.97;;;;;;;4.58;100.00;101343.78;10295132;28;20043;-70
2022/11/27 19:59:18;;;;;;;8.57;5.40;;;;;;;3.82;100.00;101236.69;10293390;28;20492;-70
2022/11/27 20:04:19;;;;;;;14.68;5.10;;;;;;;4.43;100.00;101318.50;10294714;28;20042;-70
2022/11/27 20:09:20;;;;;;;15.35;5.07;;;;;;;3.96;100.00;101246.28;10294558;28;20038;-70
2022/11/27 20:14:21;;;;;;;8.32;5.32;;;;;;;4.05;100.00;101268.50;10293292;28;20042;-70
2022/11/27 20:19:22;;;;;;;19.67;5.68;;;;;;;3.93;100.00;101235.16;10293865;28;20381;-70
2022/11/27 20:24:22;;;;;;;12.82;5.40;;;;;;;4.54;100.00;101330.91;10293141;28;20047;-71
2022/11/27 20:29:23;;;;;;;9.52;5.05;;;;;;;4.46;100.00;101334.09;10293467;28;20142;-70
2022/11/27 20:34:25;;;;;;;10.93;5.65;;;;;;;4.48;100.00;101332.19;10292609;28;20042;-71
2022/11/27 20:39:27;;;;;;;12.07;5.20;;;;;;;4.58;100.00;101332.41;10306824;28;20053;-70
2022/11/27 20:44:28;;;;;;;15.05;5.72;;;;;;;4.29;100.00;101263.34;10306303;28;20060;-70
2022/11/27 20:49:29;;;;;;;11.35;5.78;;;;;;;4.30;100.00;101281.66;10292973;28;20149;-70
2022/11/27 20:54:29;;;;;;;16.67;7.10;;;;;;;4.51;100.00;101352.19;10324339;28;20070;-71
2022/11/27 20:59:30;;;;;;;21.02;8.25;;;;;;;4.40;100.00;101350.28;10347651;28;20487;-70
2022/11/27 21:04:31;;;;;;;14.50;8.02;;;;;;;4.25;100.00;101325.03;10332183;28;20034;-70
2022/11/27 21:09:32;;;;;;;15.50;8.40;;;;;;;4.29;100.00;101355.41;10305663;28;20086;-73
2022/11/27 21:14:33;;;;;;;15.57;8.60;;;;;;;4.20;100.00;101340.25;10290340;28;20039;-70
2022/11/27 21:19:34;;;;;;;14.32;8.20;;;;;;;4.17;100.00;101345.72;10291799;28;20054;-70
2022/11/27 21:24:34;;;;;;;15.15;8.93;;;;;;;4.08;100.00;101345.38;10292615;28;20129;-71
2022/11/27 21:29:35;;;;;;;12.35;8.27;;;;;;;4.19;100.00;101352.56;10289903;28;20528;-71
2022/11/27 21:34:38;;;;;;;12.55;8.48;;;;;;;3.74;100.00;101272.31;10290820;28;20046;-71
2022/11/27 21:39:40;;;;;;;15.80;8.48;;;;;;;4.44;100.00;101369.34;10290228;28;20043;-71
2022/11/27 21:44:41;;;;;;;12.43;8.05;;;;;;;4.42;100.00;101353.63;10290834;28;20057;-71
2022/11/27 21:49:41;;;;;;;12.38;7.70;;;;;;;4.27;100.00;101333.63;10291270;28;20060;-71
2022/11/27 21:54:42;;;;;;;10.02;7.05;;;;;;;4.53;100.00;101359.03;10291274;28;20418;-71
2022/11/27 21:59:43;;;;;;;11.25;7.38;;;;;;;4.45;100.00;101337.66;10289741;28;20041;-71
2022/11/27 22:04:45;;;;;;;10.00;7.07;;;;;;;4.76;100.00;101375.06;10291053;28;20100;-71
2022/11/27 22:09:46;;;;;;;11.88;7.50;;;;;;;4.76;100.00;101370.63;10290908;28;20038;-71
2022/11/27 22:14:49;;;;;;;14.68;7.40;;;;;;;4.20;100.00;101277.13;10290146;28;20047;-72
2022/11/27 22:19:50;;;;;;;11.23;7.20;;;;;;;4.25;100.00;101280.31;10291063;28;20047;-70
2022/11/27 22:24:51;;;;;;;14.48;7.55;;;;;;;4.72;100.00;101350.72;10301626;28;20085;-70
2022/11/27 22:29:52;;;;;;;12.63;8.35;;;;;;;4.79;100.00;101374.84;10330902;28;20050;-70
2022/11/27 22:34:53;;;;;;;10.73;7.40;;;;;;;4.75;100.00;101362.81;10329844;28;20112;-70
2022/11/27 22:39:54;;;;;;;10.82;8.02;;;;;;;4.77;100.00;101374.09;10330315;28;20050;-70
2022/11/27 22:44:54;;;;;;;13.35;8.40;;;;;;;4.52;100.00;101327.56;10313082;28;20046;-70
2022/11/27 22:49:55;;;;;;;12.32;8.73;;;;;;;4.88;100.00;101391.81;10297604;28;20133;-70
2022/11/27 22:54:56;;;;;;;16.85;9.98;;;;;;;4.64;100.00;101358.31;10296673;28;20526;-71
2022/11/27 22:59:57;;;;;;;14.70;10.18;;;;;;;4.11;100.00;101281.22;10297385;28;20053;-71
2022/11/27 23:04:58;;;;;;;19.48;11.07;;;;;;;4.29;100.00;101297.56;10296121;28;20050;-71
2022/11/27 23:09:58;;;;;;;16.70;11.00;;;;;;;4.80;100.00;101403.69;10296201;28;20046;-71